createdAt,value
2023-10-20T00:00:07.909Z,82.12
2023-10-20T00:03:05.310Z,82.16
2023-10-20T00:06:02.950Z,82.16
2023-10-20T00:09:00.615Z,82.23
2023-10-20T00:12:00.425Z,82.22
2023-10-20T00:14:58.003Z,82.29
2023-10-20T00:17:55.781Z,82.37
2023-10-20T00:20:53.175Z,82.42
2023-10-20T00:23:50.777Z,82.47
2023-10-20T00:26:48.206Z,82.53
2023-10-20T00:29:45.913Z,82.55
2023-10-20T00:32:43.400Z,82.55
2023-10-20T00:35:41.146Z,82.59
2023-10-20T00:38:38.523Z,82.67
2023-10-20T00:41:37.316Z,82.74
2023-10-20T00:44:34.926Z,82.71
2023-10-20T00:47:33.208Z,82.54
2023-10-20T00:50:31.719Z,82.59
2023-10-20T00:53:29.780Z,82.68
2023-10-20T00:56:27.697Z,82.80
2023-10-20T00:59:25.428Z,82.73
2023-10-20T01:02:22.894Z,82.58
2023-10-20T01:05:24.030Z,82.70
2023-10-20T01:08:21.598Z,82.85
2023-10-20T01:11:19.497Z,82.91
2023-10-20T01:14:16.935Z,82.98
2023-10-20T01:17:14.992Z,83.05
2023-10-20T01:20:12.494Z,83.13
2023-10-20T01:23:10.177Z,83.16
2023-10-20T01:26:08.946Z,83.10
2023-10-20T01:29:11.034Z,83.15
2023-10-20T01:32:08.450Z,83.27
2023-10-20T01:35:06.196Z,83.33
2023-10-20T01:38:05.176Z,83.43
2023-10-20T01:41:03.123Z,83.52
2023-10-20T01:44:00.881Z,83.58
2023-10-20T01:46:58.372Z,83.60
2023-10-20T01:49:56.463Z,83.66
2023-10-20T01:52:53.836Z,83.70
2023-10-20T01:55:52.214Z,83.75
2023-10-20T01:58:49.879Z,83.82
2023-10-20T02:01:47.270Z,83.88
2023-10-20T02:04:44.914Z,83.91
2023-10-20T02:07:42.269Z,83.94
2023-10-20T02:10:39.913Z,83.93
2023-10-20T02:13:38.218Z,83.80
2023-10-20T02:16:35.894Z,83.92
2023-10-20T02:19:33.288Z,83.94
2023-10-20T02:22:31.169Z,83.96
2023-10-20T02:25:28.858Z,83.97
2023-10-20T02:28:26.218Z,83.94
2023-10-20T02:31:24.821Z,83.96
2023-10-20T02:34:22.278Z,83.98
2023-10-20T02:37:19.926Z,83.98
2023-10-20T02:40:17.289Z,83.86
2023-10-20T02:43:16.470Z,83.88
2023-10-20T02:46:14.223Z,83.89
2023-10-20T02:49:11.932Z,83.78
2023-10-20T02:52:09.328Z,83.76
2023-10-20T02:55:07.058Z,83.80
2023-10-20T02:58:04.478Z,83.84
2023-10-20T03:01:04.238Z,83.91
2023-10-20T03:04:02.482Z,84.00
2023-10-20T03:07:00.257Z,84.03
2023-10-20T03:09:58.160Z,84.08
2023-10-20T03:12:55.801Z,84.09
2023-10-20T03:15:53.180Z,84.09
2023-10-20T03:18:50.830Z,84.10
2023-10-20T03:21:48.939Z,84.15
2023-10-20T03:24:46.860Z,84.13
2023-10-20T03:27:44.223Z,84.17
2023-10-20T03:30:41.749Z,84.18
2023-10-20T03:33:39.147Z,84.09
2023-10-20T03:36:36.809Z,84.09
2023-10-20T03:39:34.588Z,84.12
2023-10-20T03:42:32.270Z,84.11
2023-10-20T03:45:29.641Z,84.13
2023-10-20T03:48:30.764Z,84.13
2023-10-20T03:51:28.516Z,84.11
2023-10-20T03:54:27.186Z,84.09
2023-10-20T03:57:24.627Z,84.06
2023-10-20T04:00:29.275Z,83.99
2023-10-20T04:03:27.428Z,83.96
2023-10-20T04:06:25.128Z,83.98
2023-10-20T04:09:23.412Z,83.96
2023-10-20T04:12:21.067Z,83.95
2023-10-20T04:15:20.838Z,83.95
2023-10-20T04:18:18.575Z,83.87
2023-10-20T04:21:16.024Z,83.80
2023-10-20T04:24:13.784Z,83.83
2023-10-20T04:27:21.935Z,83.85
2023-10-20T04:30:37.350Z,83.82
2023-10-20T04:33:52.633Z,83.84
2023-10-20T04:37:19.802Z,83.84
2023-10-20T04:40:34.996Z,83.80
2023-10-20T04:43:38.893Z,83.79
2023-10-20T04:46:54.443Z,83.80
2023-10-20T04:50:15.405Z,83.73
2023-10-20T04:53:34.090Z,83.70
2023-10-20T04:56:54.936Z,83.67
2023-10-20T05:00:12.969Z,83.68
2023-10-20T05:03:36.461Z,83.72
2023-10-20T05:06:44.023Z,83.76
2023-10-20T05:09:44.969Z,83.70
2023-10-20T05:12:42.646Z,83.62
2023-10-20T05:15:41.762Z,83.62
2023-10-20T05:18:39.444Z,83.57
2023-10-20T05:21:39.550Z,83.55
2023-10-20T05:24:37.337Z,83.56
2023-10-20T05:27:34.708Z,83.56
2023-10-20T05:30:32.366Z,83.59
2023-10-20T05:33:29.793Z,83.64
2023-10-20T05:36:27.596Z,83.57
2023-10-20T05:39:24.981Z,83.55
2023-10-20T05:42:22.688Z,83.50
2023-10-20T05:45:22.181Z,83.56
2023-10-20T05:48:19.846Z,83.61
2023-10-20T05:51:17.634Z,83.67
2023-10-20T05:54:15.060Z,83.67
2023-10-20T05:57:12.774Z,83.69
2023-10-20T06:00:10.767Z,83.74
2023-10-20T06:03:08.818Z,83.78
2023-10-20T06:06:06.487Z,83.72
2023-10-20T06:09:03.880Z,83.70
2023-10-20T06:12:01.456Z,83.68
2023-10-20T06:14:58.810Z,83.70
2023-10-20T06:17:58.981Z,83.72
2023-10-20T06:20:56.456Z,83.70
2023-10-20T06:23:54.112Z,83.72
2023-10-20T06:26:51.808Z,83.81
2023-10-20T06:29:49.480Z,83.82
2023-10-20T06:32:47.504Z,83.77
2023-10-20T06:35:52.229Z,83.82
2023-10-20T06:38:50.751Z,83.81
2023-10-20T06:41:48.268Z,83.75
2023-10-20T06:44:46.105Z,83.69
2023-10-20T06:47:44.754Z,83.71
2023-10-20T06:50:43.463Z,83.72
2023-10-20T06:53:41.089Z,83.67
2023-10-20T06:56:39.188Z,83.66
2023-10-20T06:59:36.594Z,83.64
2023-10-20T07:02:34.437Z,83.59
2023-10-20T07:05:32.553Z,83.56
2023-10-20T07:08:30.980Z,83.57
2023-10-20T07:11:29.100Z,83.56
2023-10-20T07:14:26.510Z,83.49
2023-10-20T07:17:24.128Z,83.42
2023-10-20T07:20:21.569Z,83.36
2023-10-20T07:23:19.436Z,83.33
2023-10-20T07:26:19.346Z,83.40
2023-10-20T07:29:18.600Z,83.46
2023-10-20T07:32:16.012Z,83.49
2023-10-20T07:35:13.873Z,83.44
2023-10-20T07:38:14.197Z,83.41
2023-10-20T07:41:12.764Z,83.34
2023-10-20T07:44:11.058Z,83.28
2023-10-20T07:47:08.496Z,83.23
2023-10-20T07:50:07.647Z,83.19
2023-10-20T07:53:06.477Z,83.15
2023-10-20T07:56:06.616Z,83.10
2023-10-20T07:59:05.128Z,83.13
2023-10-20T08:02:03.265Z,83.15
2023-10-20T08:05:01.626Z,83.12
2023-10-20T08:08:00.044Z,83.03
2023-10-20T08:10:57.559Z,82.96
2023-10-20T08:13:56.682Z,82.87
2023-10-20T08:16:54.669Z,82.83
2023-10-20T08:19:52.926Z,82.80
2023-10-20T08:22:50.317Z,82.76
2023-10-20T08:25:48.056Z,82.71
2023-10-20T08:28:45.660Z,82.66
2023-10-20T08:31:43.079Z,82.62
2023-10-20T08:34:40.714Z,82.47
2023-10-20T08:37:38.182Z,82.38
2023-10-20T08:40:55.743Z,82.36
2023-10-20T08:43:53.436Z,82.34
2023-10-20T08:46:52.296Z,82.30
2023-10-20T08:49:49.774Z,82.26
2023-10-20T08:52:48.258Z,81.86
2023-10-20T08:55:45.921Z,81.51
2023-10-20T08:58:43.338Z,81.68
2023-10-20T09:01:41.712Z,81.43
2023-10-20T09:04:39.646Z,81.16
2023-10-20T09:07:39.128Z,80.15
2023-10-20T09:10:37.953Z,79.38
2023-10-20T09:13:37.867Z,79.09
2023-10-20T09:16:35.584Z,79.04
2023-10-20T09:19:33.650Z,78.67
2023-10-20T09:22:31.631Z,77.98
2023-10-20T09:25:29.077Z,78.05
2023-10-20T09:28:26.693Z,78.10
2023-10-20T09:31:24.186Z,77.56
2023-10-20T09:34:21.787Z,77.13
2023-10-20T09:37:19.178Z,77.23
2023-10-20T09:40:16.903Z,77.01
2023-10-20T09:43:25.023Z,76.41
2023-10-20T09:46:23.820Z,76.24
2023-10-20T09:49:21.422Z,76.10
2023-10-20T09:52:20.569Z,75.80
2023-10-20T09:55:18.909Z,75.13
2023-10-20T09:58:16.594Z,74.77
2023-10-20T10:01:14.065Z,74.44
2023-10-20T10:04:12.851Z,73.88
2023-10-20T10:07:10.633Z,73.45
2023-10-20T10:10:09.083Z,72.85
2023-10-20T10:13:07.412Z,72.48
2023-10-20T10:16:04.822Z,71.88
2023-10-20T10:19:03.168Z,71.49
2023-10-20T10:22:00.601Z,71.05
2023-10-20T10:24:58.210Z,70.54
2023-10-20T10:27:56.040Z,69.94
2023-10-20T10:30:53.685Z,69.07
2023-10-20T10:33:51.659Z,69.26
2023-10-20T10:36:49.090Z,69.11
2023-10-20T10:39:46.752Z,69.09
2023-10-20T10:42:45.510Z,68.86
2023-10-20T10:45:43.366Z,68.53
2023-10-20T10:48:40.954Z,68.41
2023-10-20T10:51:38.826Z,68.38
2023-10-20T10:54:36.881Z,68.15
2023-10-20T10:57:36.570Z,67.99
2023-10-20T11:00:34.010Z,67.91
2023-10-20T11:03:31.781Z,67.88
2023-10-20T11:06:31.622Z,67.88
2023-10-20T11:09:31.000Z,67.77
2023-10-20T11:12:28.604Z,67.58
2023-10-20T11:15:26.349Z,67.30
2023-10-20T11:18:23.812Z,67.04
2023-10-20T11:21:21.480Z,66.86
2023-10-20T11:24:18.863Z,66.78
2023-10-20T11:27:16.411Z,66.77
2023-10-20T11:30:14.367Z,66.78
2023-10-20T11:33:15.742Z,66.76
2023-10-20T11:36:14.416Z,66.84
2023-10-20T11:39:14.181Z,66.66
2023-10-20T11:42:13.332Z,66.69
2023-10-20T11:45:13.862Z,66.56
2023-10-20T11:48:11.686Z,66.52
2023-10-20T11:51:10.283Z,66.27
2023-10-20T11:54:08.513Z,66.24
2023-10-20T11:57:06.225Z,66.16
2023-10-20T12:00:08.947Z,65.91
2023-10-20T12:03:06.574Z,65.69
2023-10-20T12:06:04.089Z,65.40
2023-10-20T12:09:01.847Z,65.48
2023-10-20T12:11:59.611Z,65.20
2023-10-20T12:14:57.034Z,65.11
2023-10-20T12:17:54.896Z,64.85
2023-10-20T12:20:52.517Z,64.91
2023-10-20T12:23:50.214Z,64.51
2023-10-20T12:26:48.869Z,64.11
2023-10-20T12:29:46.419Z,63.73
2023-10-20T12:32:44.929Z,63.81
2023-10-20T12:35:42.414Z,63.63
2023-10-20T12:38:40.104Z,63.56
2023-10-20T12:41:37.685Z,63.46
2023-10-20T12:44:35.996Z,63.38
2023-10-20T12:47:34.256Z,63.26
2023-10-20T12:50:34.202Z,63.34
2023-10-20T12:53:32.377Z,63.37
2023-10-20T12:56:29.883Z,63.23
2023-10-20T12:59:27.736Z,63.00
2023-10-20T13:02:25.197Z,62.85
2023-10-20T13:05:23.884Z,62.77
2023-10-20T13:08:21.719Z,62.67
2023-10-20T13:11:19.188Z,62.56
2023-10-20T13:14:16.752Z,62.53
2023-10-20T13:17:15.795Z,62.59
2023-10-20T13:20:15.136Z,62.46
2023-10-20T13:23:13.528Z,62.36
2023-10-20T13:26:11.868Z,62.23
2023-10-20T13:29:09.268Z,62.03
2023-10-20T13:32:07.108Z,61.87
2023-10-20T13:35:04.542Z,61.42
2023-10-20T13:38:02.224Z,61.32
2023-10-20T13:41:00.025Z,61.06
2023-10-20T13:43:57.684Z,60.70
2023-10-20T13:46:55.117Z,60.78
2023-10-20T13:49:52.889Z,60.74
2023-10-20T13:52:50.274Z,60.51
2023-10-20T13:55:48.121Z,60.52
2023-10-20T13:58:45.530Z,60.58
2023-10-20T14:01:43.242Z,60.32
2023-10-20T14:04:40.711Z,60.28
2023-10-20T14:07:38.358Z,60.19
2023-10-20T14:10:36.636Z,59.76
2023-10-20T14:13:34.226Z,59.78
2023-10-20T14:16:33.729Z,59.80
2023-10-20T14:19:33.341Z,59.68
2023-10-20T14:22:31.706Z,59.64
2023-10-20T14:25:29.258Z,59.61
2023-10-20T14:28:32.927Z,59.74
2023-10-20T14:31:30.829Z,59.73
2023-10-20T14:34:28.535Z,59.61
2023-10-20T14:37:26.615Z,59.59
2023-10-20T14:40:24.165Z,59.15
2023-10-20T14:43:21.599Z,59.29
2023-10-20T14:46:19.330Z,59.12
2023-10-20T14:49:17.076Z,59.07
2023-10-20T14:52:14.919Z,58.76
2023-10-20T14:55:12.720Z,58.87
2023-10-20T14:58:10.318Z,58.60
2023-10-20T15:01:07.737Z,58.34
2023-10-20T15:04:17.994Z,57.94
2023-10-20T15:07:24.247Z,57.81
2023-10-20T15:10:22.381Z,57.73
2023-10-20T15:13:20.460Z,57.47
2023-10-20T15:16:18.127Z,57.45
2023-10-20T15:19:15.612Z,57.75
2023-10-20T15:22:13.373Z,57.66
2023-10-20T15:25:10.843Z,57.90
2023-10-20T15:28:08.652Z,58.06
2023-10-20T15:31:13.665Z,58.08
2023-10-20T15:34:11.397Z,58.14
2023-10-20T15:37:09.097Z,58.28
2023-10-20T15:40:17.629Z,58.32
2023-10-20T15:43:16.390Z,58.38
2023-10-20T15:46:14.358Z,58.46
2023-10-20T15:49:12.087Z,58.53
2023-10-20T15:52:09.549Z,58.40
2023-10-20T15:55:07.298Z,58.47
2023-10-20T15:58:05.762Z,58.53
2023-10-20T16:01:05.726Z,58.56
2023-10-20T16:04:04.014Z,58.56
2023-10-20T16:07:01.689Z,58.61
2023-10-20T16:09:59.358Z,58.57
2023-10-20T16:12:57.221Z,58.60
2023-10-20T16:15:55.003Z,58.60
2023-10-20T16:18:52.911Z,58.63
2023-10-20T16:21:52.318Z,58.75
2023-10-20T16:24:50.052Z,58.82
2023-10-20T16:27:47.948Z,58.86
2023-10-20T16:30:46.131Z,58.98
2023-10-20T16:33:44.504Z,59.13
2023-10-20T16:36:42.610Z,59.27
2023-10-20T16:39:41.626Z,59.43
2023-10-20T16:42:39.823Z,59.55
2023-10-20T16:45:38.425Z,59.67
2023-10-20T16:48:37.089Z,59.74
2023-10-20T16:51:35.064Z,59.84
2023-10-20T16:54:33.688Z,59.98
2023-10-20T16:57:32.786Z,60.17
2023-10-20T17:00:32.649Z,60.37
2023-10-20T17:03:32.130Z,60.50
2023-10-20T17:06:31.805Z,60.68
2023-10-20T17:09:32.247Z,60.88
2023-10-20T17:12:31.964Z,61.06
2023-10-20T17:15:31.043Z,61.29
2023-10-20T17:18:29.614Z,61.54
2023-10-20T17:21:28.502Z,61.67
2023-10-20T17:24:27.979Z,61.88
2023-10-20T17:27:27.756Z,62.13
2023-10-20T17:30:27.982Z,62.26
2023-10-20T17:33:28.306Z,62.36
2023-10-20T17:36:31.476Z,62.47
2023-10-20T17:39:31.029Z,62.77
2023-10-20T17:42:31.028Z,62.94
2023-10-20T17:45:30.449Z,63.04
2023-10-20T17:48:31.211Z,63.12
2023-10-20T17:51:30.574Z,63.17
2023-10-20T17:54:30.311Z,63.26
2023-10-20T17:57:30.048Z,63.28
2023-10-20T18:00:29.601Z,63.31
2023-10-20T18:03:29.215Z,63.34
2023-10-20T18:06:28.907Z,63.36
2023-10-20T18:09:28.699Z,63.43
2023-10-20T18:12:28.529Z,63.44
2023-10-20T18:15:28.149Z,63.56
2023-10-20T18:18:27.420Z,63.66
2023-10-20T18:21:27.143Z,63.68
2023-10-20T18:24:26.667Z,63.60
2023-10-20T18:27:26.291Z,63.61
2023-10-20T18:30:25.821Z,63.57
2023-10-20T18:33:29.038Z,63.45
2023-10-20T18:36:29.769Z,63.59
2023-10-20T18:39:29.369Z,63.70
2023-10-20T18:42:29.107Z,63.83
2023-10-20T18:45:29.245Z,63.95
2023-10-20T18:48:29.271Z,64.03
2023-10-20T18:51:30.116Z,64.10
2023-10-20T18:54:29.792Z,64.27
2023-10-20T18:57:30.611Z,64.37
2023-10-20T19:00:34.108Z,64.46
2023-10-20T19:03:33.955Z,64.57
2023-10-20T19:06:33.751Z,64.72
2023-10-20T19:09:33.806Z,64.86
2023-10-20T19:12:33.859Z,65.00
2023-10-20T19:15:33.865Z,65.13
2023-10-20T19:18:39.729Z,65.13
2023-10-20T19:21:44.476Z,65.14
2023-10-20T19:24:44.245Z,65.30
2023-10-20T19:27:43.787Z,65.49
2023-10-20T19:30:44.658Z,65.62
2023-10-20T19:33:45.275Z,65.74
2023-10-20T19:36:45.324Z,65.83
2023-10-20T19:39:45.450Z,65.93
2023-10-20T19:42:44.929Z,66.00
2023-10-20T19:45:44.860Z,66.05
2023-10-20T19:48:44.514Z,66.03
2023-10-20T19:51:44.392Z,65.97
2023-10-20T19:54:44.366Z,65.97
2023-10-20T19:57:44.064Z,65.79
2023-10-20T20:00:43.490Z,65.86
2023-10-20T20:03:43.371Z,65.76
2023-10-20T20:06:43.288Z,65.67
2023-10-20T20:09:42.688Z,65.72
2023-10-20T20:12:42.196Z,65.89
2023-10-20T20:15:41.474Z,65.94
2023-10-20T20:18:41.106Z,66.00
2023-10-20T20:21:40.387Z,66.06
2023-10-20T20:24:39.167Z,66.12
2023-10-20T20:27:37.694Z,66.21
2023-10-20T20:30:35.592Z,66.29
2023-10-20T20:33:33.507Z,66.39
2023-10-20T20:36:31.947Z,66.49
2023-10-20T20:39:31.482Z,66.58
2023-10-20T20:42:29.090Z,66.67
2023-10-20T20:45:26.826Z,66.75
2023-10-20T20:48:24.299Z,66.87
2023-10-20T20:51:22.006Z,66.90
2023-10-20T20:54:19.408Z,66.91
2023-10-20T20:57:17.063Z,67.04
2023-10-20T21:00:14.707Z,67.12
2023-10-20T21:03:14.557Z,67.19
2023-10-20T21:06:12.163Z,67.09
2023-10-20T21:09:11.604Z,67.20
2023-10-20T21:12:09.247Z,67.38
2023-10-20T21:15:08.942Z,67.55
2023-10-20T21:18:06.524Z,67.64
2023-10-20T21:21:04.552Z,67.74
2023-10-20T21:24:06.520Z,67.80
2023-10-20T21:27:04.390Z,67.86
2023-10-20T21:30:01.921Z,67.95
2023-10-20T21:32:59.873Z,68.02
2023-10-20T21:35:57.624Z,68.09
2023-10-20T21:38:55.421Z,68.18
2023-10-20T21:41:53.078Z,68.32
2023-10-20T21:44:50.713Z,68.46
2023-10-20T21:47:48.241Z,68.47
2023-10-20T21:50:45.886Z,68.42
2023-10-20T21:53:43.325Z,68.36
2023-10-20T21:56:40.915Z,67.92
2023-10-20T21:59:38.598Z,67.85
2023-10-20T22:02:36.504Z,68.04
2023-10-20T22:05:34.460Z,67.82
2023-10-20T22:08:32.167Z,67.71
2023-10-20T22:11:29.822Z,67.74
2023-10-20T22:14:27.205Z,67.73
2023-10-20T22:17:24.975Z,67.68
2023-10-20T22:20:22.376Z,67.39
2023-10-20T22:23:20.458Z,67.39
2023-10-20T22:26:17.919Z,67.17
2023-10-20T22:29:15.630Z,67.18
2023-10-20T22:32:13.078Z,67.10
2023-10-20T22:35:10.724Z,67.05
2023-10-20T22:38:08.159Z,67.16
2023-10-20T22:41:05.841Z,67.29
2023-10-20T22:44:03.647Z,67.26
2023-10-20T22:47:01.250Z,67.34
2023-10-20T22:49:58.966Z,67.45
2023-10-20T22:52:56.448Z,67.52
2023-10-20T22:55:53.994Z,67.56
2023-10-20T22:58:51.452Z,67.65
2023-10-20T23:01:49.632Z,67.75
2023-10-20T23:04:47.184Z,67.89
2023-10-20T23:07:45.232Z,68.07
2023-10-20T23:10:42.643Z,68.19
2023-10-20T23:13:40.234Z,68.32
2023-10-20T23:16:37.703Z,68.39
2023-10-20T23:19:35.534Z,68.54
2023-10-20T23:22:33.078Z,68.57
2023-10-20T23:25:30.767Z,68.56
2023-10-20T23:28:28.132Z,68.72
2023-10-20T23:31:25.869Z,68.87
2023-10-20T23:34:23.267Z,68.86
2023-10-20T23:37:21.032Z,68.60
2023-10-20T23:40:18.487Z,68.56
2023-10-20T23:43:16.242Z,68.55
2023-10-20T23:46:13.666Z,68.32
2023-10-20T23:49:11.259Z,68.07
2023-10-20T23:52:08.684Z,68.28
2023-10-20T23:55:06.271Z,68.46
2023-10-20T23:58:03.968Z,68.51
